createdAt,value
2023-01-04T00:01:02.236Z,4.10
2023-01-04T00:03:29.997Z,5.00
2023-01-04T00:05:58.613Z,4.30
2023-01-04T00:08:26.703Z,4.00
2023-01-04T00:11:00.762Z,4.90
2023-01-04T00:13:29.640Z,5.20
2023-01-04T00:16:01.108Z,4.00
2023-01-04T00:18:34.159Z,5.30
2023-01-04T00:21:10.766Z,4.90
2023-01-04T00:23:39.797Z,5.10
2023-01-04T00:26:11.806Z,4.50
2023-01-04T00:28:39.936Z,4.80
2023-01-04T00:31:09.901Z,5.60
2023-01-04T00:33:37.827Z,5.10
2023-01-04T00:36:08.559Z,5.40
2023-01-04T00:38:36.769Z,4.90
2023-01-04T00:41:05.763Z,5.20
2023-01-04T00:43:33.486Z,5.20
2023-01-04T00:46:01.154Z,5.50
2023-01-04T00:48:30.075Z,4.90
2023-01-04T00:50:57.731Z,4.90
2023-01-04T00:53:25.954Z,6.10
2023-01-04T00:55:59.497Z,5.30
2023-01-04T00:58:27.223Z,5.50
2023-01-04T01:00:54.833Z,5.20
2023-01-04T01:03:22.787Z,5.00
2023-01-04T01:05:50.520Z,4.50
2023-01-04T01:08:18.090Z,4.90
2023-01-04T01:10:45.784Z,4.70
2023-01-04T01:13:13.472Z,4.80
2023-01-04T01:15:41.155Z,4.60
2023-01-04T01:18:08.777Z,4.00
2023-01-04T01:20:45.139Z,5.10
2023-01-04T01:23:15.654Z,4.20
2023-01-04T01:25:44.128Z,5.10
2023-01-04T01:28:11.762Z,4.40
2023-01-04T01:30:41.493Z,4.00
2023-01-04T01:33:10.469Z,4.00
2023-01-04T01:35:38.280Z,5.00
2023-01-04T01:38:05.963Z,4.80
2023-01-04T01:40:33.765Z,4.50
2023-01-04T01:43:01.410Z,4.40
2023-01-04T01:45:34.172Z,5.10
2023-01-04T01:48:11.094Z,5.00
2023-01-04T01:50:53.646Z,5.50
2023-01-04T01:53:22.171Z,4.70
2023-01-04T01:55:51.912Z,5.00
2023-01-04T01:58:31.484Z,3.90
2023-01-04T02:00:59.435Z,4.90
2023-01-04T02:03:32.441Z,4.90
2023-01-04T02:06:03.916Z,5.80
2023-01-04T02:08:32.188Z,4.80
2023-01-04T02:10:59.928Z,4.80
2023-01-04T02:13:31.852Z,4.80
2023-01-04T02:16:05.961Z,4.10
2023-01-04T02:18:43.294Z,5.00
2023-01-04T02:21:34.699Z,4.90
2023-01-04T02:24:08.396Z,5.30
2023-01-04T02:27:20.487Z,4.80
2023-01-04T02:32:40.083Z,4.40
2023-01-04T02:35:24.126Z,4.40
2023-01-04T02:38:25.667Z,4.50
2023-01-04T02:40:59.768Z,4.00
2023-01-04T02:43:37.171Z,4.30
2023-01-04T02:46:10.173Z,4.30
2023-01-04T02:48:39.153Z,5.10
2023-01-04T02:51:35.587Z,4.70
2023-01-04T02:54:18.610Z,4.90
2023-01-04T02:57:06.067Z,4.60
2023-01-04T02:59:42.922Z,4.50
2023-01-04T03:02:31.864Z,5.00
2023-01-04T03:05:14.904Z,5.30
2023-01-04T03:07:59.177Z,4.70
2023-01-04T03:10:48.218Z,4.60
2023-01-04T03:13:28.509Z,4.90
2023-01-04T03:16:07.256Z,4.90
2023-01-04T03:18:41.450Z,4.40
2023-01-04T03:21:12.693Z,4.50
2023-01-04T03:23:42.928Z,5.10
2023-01-04T03:26:28.716Z,4.90
2023-01-04T03:29:00.864Z,4.90
2023-01-04T03:31:49.426Z,4.60
2023-01-04T03:34:17.703Z,5.20
2023-01-04T03:37:11.665Z,6.00
2023-01-04T03:40:03.816Z,7.10
2023-01-04T03:43:00.978Z,6.20
2023-01-04T03:45:38.296Z,6.20
2023-01-04T03:48:14.585Z,6.30
2023-01-04T03:50:47.390Z,5.50
2023-01-04T03:53:15.846Z,5.30
2023-01-04T03:55:44.862Z,5.40
2023-01-04T03:58:12.958Z,5.10
2023-01-04T04:00:41.124Z,2.00
2023-01-04T04:03:08.895Z,6.00
2023-01-04T04:05:40.149Z,4.90
2023-01-04T04:08:07.923Z,5.40
2023-01-04T04:10:36.105Z,5.40
2023-01-04T04:13:03.795Z,5.90
2023-01-04T04:15:31.655Z,5.60
2023-01-04T04:17:59.284Z,6.40
2023-01-04T04:20:26.942Z,5.90
2023-01-04T04:22:54.553Z,5.80
2023-01-04T04:25:22.278Z,5.10
2023-01-04T04:27:50.033Z,5.60
2023-01-04T04:30:17.778Z,5.40
2023-01-04T04:32:45.359Z,5.80
2023-01-04T04:35:12.978Z,5.10
2023-01-04T04:37:40.665Z,5.20
2023-01-04T04:40:08.720Z,5.30
2023-01-04T04:42:36.384Z,5.40
2023-01-04T04:45:04.435Z,5.40
2023-01-04T04:47:32.027Z,5.50
2023-01-04T04:49:59.654Z,5.50
2023-01-04T04:52:27.229Z,5.80
2023-01-04T04:54:55.069Z,5.70
2023-01-04T04:57:22.687Z,5.00
2023-01-04T04:59:50.263Z,5.50
2023-01-04T05:02:18.028Z,5.80
2023-01-04T05:04:45.797Z,5.70
2023-01-04T05:07:13.430Z,6.00
2023-01-04T05:09:41.058Z,5.30
2023-01-04T05:12:12.750Z,5.60
2023-01-04T05:17:07.978Z,5.20
2023-01-04T05:19:35.599Z,5.60
2023-01-04T05:22:03.200Z,5.20
2023-01-04T05:24:30.824Z,6.20
2023-01-04T05:26:58.428Z,5.60
2023-01-04T05:29:26.046Z,6.10
2023-01-04T05:31:53.722Z,6.50
2023-01-04T05:34:22.412Z,6.00
2023-01-04T05:36:50.218Z,6.40
2023-01-04T05:39:17.881Z,6.20
2023-01-04T05:41:45.480Z,6.50
2023-01-04T05:44:13.150Z,6.40
2023-01-04T05:46:40.790Z,6.40
2023-01-04T05:49:08.382Z,6.50
2023-01-04T05:51:35.953Z,7.40
2023-01-04T05:54:03.625Z,6.60
2023-01-04T05:56:31.415Z,6.80
2023-01-04T05:58:59.030Z,6.80
2023-01-04T06:01:26.720Z,7.70
2023-01-04T06:03:54.478Z,7.90
2023-01-04T06:06:22.085Z,7.70
2023-01-04T06:08:49.790Z,7.70
2023-01-04T06:11:21.326Z,7.60
2023-01-04T06:13:51.705Z,7.70
2023-01-04T06:16:19.285Z,8.80
2023-01-04T06:18:46.922Z,7.80
2023-01-04T06:21:14.622Z,7.90
2023-01-04T06:23:42.280Z,8.00
2023-01-04T06:26:09.897Z,6.80
2023-01-04T06:28:40.904Z,8.60
2023-01-04T06:31:10.833Z,8.50
2023-01-04T06:33:39.512Z,10.40
2023-01-04T06:36:07.916Z,9.30
2023-01-04T06:38:48.707Z,8.00
2023-01-04T06:41:16.605Z,8.60
2023-01-04T06:43:44.451Z,9.30
2023-01-04T06:46:12.071Z,9.70
2023-01-04T06:48:39.713Z,10.40
2023-01-04T06:51:07.375Z,13.40
2023-01-04T06:53:34.966Z,13.60
2023-01-04T06:56:02.777Z,15.50
2023-01-04T06:58:30.492Z,14.10
2023-01-04T07:00:58.125Z,13.70
2023-01-04T07:03:26.025Z,13.30
2023-01-04T07:05:53.807Z,12.10
2023-01-04T07:08:21.568Z,11.90
2023-01-04T07:10:49.338Z,10.10
2023-01-04T07:13:17.643Z,11.10
2023-01-04T07:15:45.445Z,11.10
2023-01-04T07:18:13.155Z,11.80
2023-01-04T07:20:40.965Z,12.60
2023-01-04T07:23:08.639Z,13.80
2023-01-04T07:25:36.524Z,13.30
2023-01-04T07:28:04.573Z,12.20
2023-01-04T07:30:32.327Z,12.70
2023-01-04T07:33:00.007Z,13.50
2023-01-04T07:35:27.696Z,13.90
2023-01-04T07:37:58.754Z,12.40
2023-01-04T07:40:27.302Z,11.90
2023-01-04T07:42:57.023Z,13.20
2023-01-04T07:45:25.596Z,12.50
2023-01-04T07:47:53.349Z,13.10
2023-01-04T07:50:21.067Z,12.70
2023-01-04T07:52:48.819Z,13.30
2023-01-04T07:55:16.505Z,19.40
2023-01-04T07:57:44.149Z,15.40
2023-01-04T08:00:12.553Z,14.70
2023-01-04T08:02:40.345Z,13.30
2023-01-04T08:05:08.416Z,14.80
2023-01-04T08:07:36.181Z,14.10
2023-01-04T08:10:04.361Z,14.40
2023-01-04T08:12:32.133Z,13.10
2023-01-04T08:14:59.755Z,13.10
2023-01-04T08:17:27.568Z,13.80
2023-01-04T08:19:55.179Z,12.40
2023-01-04T08:22:22.862Z,13.50
2023-01-04T08:24:50.510Z,13.60
2023-01-04T08:27:18.184Z,12.30
2023-01-04T08:29:45.801Z,10.10
2023-01-04T08:32:13.458Z,11.00
2023-01-04T08:34:41.212Z,11.00
2023-01-04T08:37:09.191Z,10.80
2023-01-04T08:39:36.928Z,12.20
2023-01-04T08:42:17.956Z,13.10
2023-01-04T08:44:48.428Z,11.90
2023-01-04T08:47:16.458Z,10.50
2023-01-04T08:49:44.095Z,11.50
2023-01-04T08:52:11.888Z,13.50
2023-01-04T08:54:39.514Z,9.70
2023-01-04T08:57:07.638Z,10.70
2023-01-04T08:59:35.308Z,11.10
2023-01-04T09:02:05.985Z,12.10
2023-01-04T09:04:34.315Z,11.80
2023-01-04T09:07:02.003Z,11.50
2023-01-04T09:09:29.599Z,10.20
2023-01-04T09:11:57.249Z,11.60
2023-01-04T09:14:24.862Z,10.70
2023-01-04T09:16:52.502Z,14.60
2023-01-04T09:19:22.355Z,14.70
2023-01-04T09:21:50.734Z,14.30
2023-01-04T09:24:18.426Z,14.40
2023-01-04T09:26:46.103Z,12.90
2023-01-04T09:29:13.749Z,14.30
2023-01-04T09:31:41.435Z,14.80
2023-01-04T09:34:14.658Z,13.70
2023-01-04T09:36:45.839Z,15.80
2023-01-04T09:39:21.794Z,17.00
2023-01-04T09:42:01.840Z,19.80
2023-01-04T09:47:59.478Z,15.60
2023-01-04T09:50:41.233Z,15.50
2023-01-04T09:53:08.846Z,15.70
2023-01-04T09:55:53.147Z,16.70
2023-01-04T09:58:24.588Z,15.50
2023-01-04T10:01:11.324Z,15.40
2023-01-04T10:03:55.369Z,15.50
2023-01-04T10:06:23.040Z,15.70
2023-01-04T10:08:50.710Z,16.00
2023-01-04T10:11:39.903Z,16.50
2023-01-04T10:14:14.958Z,16.30
2023-01-04T10:17:23.620Z,16.00
2023-01-04T10:22:49.336Z,16.00
2023-01-04T10:25:46.288Z,15.20
2023-01-04T10:28:53.985Z,15.10
2023-01-04T10:31:40.811Z,16.20
2023-01-04T10:34:19.320Z,15.00
2023-01-04T10:36:48.605Z,15.40
2023-01-04T10:39:19.604Z,14.10
2023-01-04T10:42:18.187Z,13.30
2023-01-04T10:44:54.456Z,13.10
2023-01-04T10:47:26.811Z,13.50
2023-01-04T10:50:00.979Z,13.10
2023-01-04T10:52:44.411Z,15.70
2023-01-04T10:55:25.125Z,14.60
2023-01-04T10:58:01.867Z,13.40
2023-01-04T11:00:41.914Z,11.90
2023-01-04T11:05:54.618Z,9.90
2023-01-04T11:08:28.934Z,10.50
2023-01-04T11:11:04.205Z,11.40
2023-01-04T11:13:32.036Z,11.20
2023-01-04T11:15:59.750Z,11.00
2023-01-04T11:18:28.436Z,10.70
2023-01-04T11:20:56.170Z,11.80
2023-01-04T11:23:23.845Z,12.10
2023-01-04T11:25:56.973Z,12.20
2023-01-04T11:28:37.200Z,13.20
2023-01-04T11:31:07.737Z,12.80
2023-01-04T11:33:59.449Z,12.60
2023-01-04T11:36:38.911Z,12.10
2023-01-04T11:39:19.145Z,12.40
2023-01-04T11:42:00.749Z,11.30
2023-01-04T11:44:35.559Z,10.20
2023-01-04T11:47:16.275Z,10.70
2023-01-04T11:49:43.943Z,10.10
2023-01-04T11:52:34.240Z,10.50
2023-01-04T11:55:24.346Z,10.00
2023-01-04T11:58:12.867Z,9.20
2023-01-04T12:01:18.542Z,9.60
2023-01-04T12:03:46.447Z,9.70
2023-01-04T12:06:18.794Z,9.80
2023-01-04T12:08:47.612Z,8.60
2023-01-04T12:11:35.724Z,7.70
2023-01-04T12:14:04.131Z,6.40
2023-01-04T12:16:59.872Z,9.50
2023-01-04T12:19:28.061Z,7.70
2023-01-04T12:21:59.475Z,7.70
2023-01-04T12:24:31.547Z,8.30
2023-01-04T12:27:01.695Z,7.30
2023-01-04T12:29:44.984Z,7.30
2023-01-04T12:32:12.573Z,8.70
2023-01-04T12:34:41.859Z,7.80
2023-01-04T12:37:10.457Z,7.80
2023-01-04T12:39:41.243Z,8.20
2023-01-04T12:42:20.960Z,8.70
2023-01-04T12:44:48.543Z,9.20
2023-01-04T12:47:36.109Z,9.10
2023-01-04T12:50:08.246Z,9.50
2023-01-04T12:55:37.747Z,8.20
2023-01-04T13:01:27.965Z,9.10
2023-01-04T13:04:04.991Z,12.70
2023-01-04T13:06:45.026Z,8.10
2023-01-04T13:09:24.924Z,8.60
2023-01-04T13:12:09.443Z,9.00
2023-01-04T13:15:03.974Z,8.70
2023-01-04T13:17:39.407Z,9.00
2023-01-04T13:20:20.233Z,7.60
2023-01-04T13:22:54.271Z,8.70
2023-01-04T13:25:23.921Z,8.40
2023-01-04T13:28:01.467Z,8.40
2023-01-04T13:30:37.811Z,7.80
2023-01-04T13:33:28.188Z,8.30
2023-01-04T13:36:09.473Z,4.90
2023-01-04T13:38:40.091Z,6.30
2023-01-04T13:41:20.957Z,7.70
2023-01-04T13:44:12.398Z,6.60
2023-01-04T13:46:42.828Z,8.30
2023-01-04T13:49:15.101Z,8.20
2023-01-04T13:51:42.846Z,8.20
2023-01-04T13:54:23.217Z,8.90
2023-01-04T13:56:55.414Z,9.00
2023-01-04T13:59:23.576Z,8.40
2023-01-04T14:01:51.571Z,9.20
2023-01-04T14:04:26.720Z,9.20
2023-01-04T14:06:58.251Z,8.70
2023-01-04T14:09:30.132Z,9.00
2023-01-04T14:12:06.760Z,10.60
2023-01-04T14:14:54.884Z,10.70
2023-01-04T14:17:26.246Z,10.10
2023-01-04T14:19:57.130Z,9.30
2023-01-04T14:22:33.664Z,10.60
2023-01-04T14:25:36.132Z,9.70
2023-01-04T14:28:19.181Z,9.50
2023-01-04T14:30:49.159Z,10.10
2023-01-04T14:33:22.306Z,11.20
2023-01-04T14:36:19.229Z,10.00
2023-01-04T14:39:05.156Z,9.60
2023-01-04T14:41:35.268Z,10.60
2023-01-04T14:44:10.812Z,10.80
2023-01-04T14:46:38.986Z,21.50
2023-01-04T14:49:06.722Z,12.70
2023-01-04T14:51:40.573Z,15.80
2023-01-04T14:54:11.748Z,15.50
2023-01-04T14:56:40.677Z,12.70
2023-01-04T14:59:08.492Z,13.70
2023-01-04T15:01:36.980Z,14.00
2023-01-04T15:04:05.734Z,14.00
2023-01-04T15:06:34.382Z,15.20
2023-01-04T15:09:02.118Z,14.30
2023-01-04T15:11:29.793Z,15.70
2023-01-04T15:13:57.369Z,14.70
2023-01-04T15:16:25.203Z,17.30
2023-01-04T15:18:52.910Z,14.30
2023-01-04T15:21:20.561Z,14.90
2023-01-04T15:23:48.171Z,15.40
2023-01-04T15:26:15.798Z,15.20
2023-01-04T15:28:43.450Z,16.60
2023-01-04T15:31:13.795Z,14.50
2023-01-04T15:33:41.511Z,15.00
2023-01-04T15:36:16.225Z,11.60
2023-01-04T15:38:47.749Z,12.20
2023-01-04T15:41:17.894Z,11.20
2023-01-04T15:43:45.761Z,14.10
2023-01-04T15:46:13.528Z,13.40
2023-01-04T15:48:41.320Z,15.30
2023-01-04T15:51:09.482Z,13.20
2023-01-04T15:53:37.079Z,11.90
2023-01-04T15:56:06.933Z,14.30
2023-01-04T15:58:34.831Z,13.90
2023-01-04T16:01:13.521Z,14.40
2023-01-04T16:03:41.610Z,14.80
2023-01-04T16:06:14.538Z,14.00
2023-01-04T16:08:43.078Z,14.10
2023-01-04T16:11:13.412Z,15.20
2023-01-04T16:13:41.206Z,15.00
2023-01-04T16:16:09.592Z,14.00
2023-01-04T16:18:38.764Z,12.60
2023-01-04T16:21:10.136Z,12.80
2023-01-04T16:23:37.779Z,11.60
2023-01-04T16:26:06.351Z,10.70
2023-01-04T16:28:34.750Z,11.80
2023-01-04T16:31:03.336Z,13.00
2023-01-04T16:33:31.399Z,11.40
2023-01-04T16:36:07.496Z,12.20
2023-01-04T16:38:36.813Z,14.60
2023-01-04T16:41:06.116Z,15.60
2023-01-04T16:43:43.233Z,13.00
2023-01-04T16:46:10.830Z,13.90
2023-01-04T16:48:42.780Z,12.50
2023-01-04T16:51:11.087Z,16.00
2023-01-04T16:53:39.311Z,13.00
2023-01-04T16:56:09.406Z,13.30
2023-01-04T16:58:37.114Z,13.20
2023-01-04T17:01:20.779Z,10.80
2023-01-04T17:03:49.685Z,11.50
2023-01-04T17:06:20.652Z,11.30
2023-01-04T17:08:50.336Z,11.40
2023-01-04T17:14:12.920Z,10.80
2023-01-04T17:16:42.441Z,11.20
2023-01-04T17:19:10.166Z,10.90
2023-01-04T17:21:37.815Z,9.60
2023-01-04T17:24:05.736Z,11.10
2023-01-04T17:26:33.658Z,11.20
2023-01-04T17:29:02.300Z,11.00
2023-01-04T17:31:36.066Z,10.00
2023-01-04T17:34:03.950Z,10.90
2023-01-04T17:36:31.963Z,11.00
2023-01-04T17:39:00.754Z,9.80
2023-01-04T17:41:30.349Z,12.40
2023-01-04T17:44:01.094Z,14.80
2023-01-04T17:46:32.047Z,10.90
2023-01-04T17:49:23.131Z,13.10
2023-01-04T17:51:53.095Z,12.70
2023-01-04T17:54:23.529Z,13.30
2023-01-04T17:56:51.753Z,14.00
2023-01-04T17:59:19.533Z,13.10
2023-01-04T18:01:47.284Z,11.60
2023-01-04T18:04:14.999Z,11.80
2023-01-04T18:06:42.806Z,12.70
2023-01-04T18:09:11.007Z,12.50
2023-01-04T18:11:38.655Z,11.90
2023-01-04T18:14:10.005Z,13.20
2023-01-04T18:16:39.893Z,10.50
2023-01-04T18:19:08.853Z,13.20
2023-01-04T18:21:36.593Z,13.30
2023-01-04T18:29:40.038Z,13.60
2023-01-04T18:32:07.757Z,14.30
2023-01-04T18:34:35.464Z,13.80
2023-01-04T18:37:03.188Z,15.30
2023-01-04T18:39:30.831Z,14.80
2023-01-04T18:41:58.463Z,14.10
2023-01-04T18:44:34.950Z,13.90
2023-01-04T18:47:03.703Z,14.40
2023-01-04T18:49:32.206Z,14.30
2023-01-04T18:51:59.804Z,13.70
2023-01-04T18:54:27.431Z,12.80
2023-01-04T18:57:00.646Z,15.00
2023-01-04T18:59:30.091Z,12.20
2023-01-04T19:01:58.726Z,15.40
2023-01-04T19:04:28.227Z,15.40
2023-01-04T19:06:55.907Z,16.50
2023-01-04T19:09:24.154Z,15.40
2023-01-04T19:11:51.812Z,16.50
2023-01-04T19:14:19.427Z,13.60
2023-01-04T19:16:47.074Z,16.50
2023-01-04T19:19:14.806Z,14.10
2023-01-04T19:21:42.617Z,14.90
2023-01-04T19:24:11.226Z,18.60
2023-01-04T19:26:39.107Z,17.40
2023-01-04T19:29:06.953Z,16.80
2023-01-04T19:31:34.785Z,15.20
2023-01-04T19:34:03.961Z,16.90
2023-01-04T19:36:31.629Z,15.40
2023-01-04T19:38:59.679Z,16.60
2023-01-04T19:41:33.466Z,17.20
2023-01-04T19:44:06.700Z,15.80
2023-01-04T19:46:36.517Z,15.40
2023-01-04T19:49:08.051Z,14.60
2023-01-04T19:51:38.516Z,13.70
2023-01-04T19:54:06.138Z,14.20
2023-01-04T19:56:33.742Z,14.40
2023-01-04T19:59:01.393Z,14.40
2023-01-04T20:01:30.442Z,14.60
2023-01-04T20:03:58.141Z,13.70
2023-01-04T20:06:25.844Z,13.70
2023-01-04T20:08:53.892Z,13.80
2023-01-04T20:11:21.763Z,13.50
2023-01-04T20:13:49.523Z,14.20
2023-01-04T20:16:17.205Z,14.70
2023-01-04T20:18:44.989Z,14.20
2023-01-04T20:21:14.395Z,13.90
2023-01-04T20:23:42.040Z,13.00
2023-01-04T20:26:13.835Z,14.00
2023-01-04T20:28:42.703Z,14.20
2023-01-04T20:31:13.400Z,13.60
2023-01-04T20:33:41.611Z,15.30
2023-01-04T20:36:17.509Z,16.50
2023-01-04T20:38:46.743Z,11.10
2023-01-04T20:41:20.524Z,15.30
2023-01-04T20:43:49.154Z,17.70
2023-01-04T20:46:19.472Z,22.80
2023-01-04T20:48:48.139Z,19.30
2023-01-04T20:51:19.722Z,17.20
2023-01-04T20:53:47.913Z,18.40
2023-01-04T20:56:18.541Z,18.70
2023-01-04T20:58:47.426Z,16.80
2023-01-04T21:01:18.937Z,18.10
2023-01-04T21:03:47.086Z,15.70
2023-01-04T21:06:17.410Z,17.70
2023-01-04T21:08:46.116Z,16.10
2023-01-04T21:11:14.482Z,19.00
2023-01-04T21:13:42.375Z,17.90
2023-01-04T21:16:11.359Z,18.30
2023-01-04T21:18:39.145Z,18.20
2023-01-04T21:21:09.099Z,17.80
2023-01-04T21:23:36.815Z,18.90
2023-01-04T21:26:06.205Z,19.30
2023-01-04T21:28:34.826Z,21.40
2023-01-04T21:31:02.656Z,21.40
2023-01-04T21:33:30.490Z,21.60
2023-01-04T21:35:58.160Z,17.40
2023-01-04T21:38:25.900Z,16.30
2023-01-04T21:40:53.497Z,16.90
2023-01-04T21:43:21.259Z,17.50
2023-01-04T21:45:49.023Z,16.40
2023-01-04T21:48:18.311Z,18.60
2023-01-04T21:50:45.930Z,15.70
2023-01-04T21:53:13.522Z,15.20
2023-01-04T21:55:41.088Z,14.50
2023-01-04T21:58:08.729Z,14.50
2023-01-04T22:00:36.542Z,14.10
2023-01-04T22:03:04.231Z,13.00
2023-01-04T22:05:31.863Z,12.30
2023-01-04T22:07:59.459Z,11.40
2023-01-04T22:10:27.149Z,11.50
2023-01-04T22:12:54.723Z,12.30
2023-01-04T22:15:22.313Z,10.40
2023-01-04T22:17:49.911Z,10.60
2023-01-04T22:20:18.086Z,10.50
2023-01-04T22:22:45.729Z,10.70
2023-01-04T22:25:13.683Z,10.80
2023-01-04T22:27:41.383Z,11.00
2023-01-04T22:30:09.400Z,10.20
2023-01-04T22:32:37.022Z,9.10
2023-01-04T22:35:05.098Z,10.80
2023-01-04T22:37:32.737Z,9.70
2023-01-04T22:40:00.429Z,10.00
2023-01-04T22:42:28.097Z,9.50
2023-01-04T22:44:56.078Z,10.90
2023-01-04T22:47:23.877Z,10.10
2023-01-04T22:49:51.519Z,10.60
2023-01-04T22:52:19.205Z,10.10
2023-01-04T22:54:49.895Z,10.10
2023-01-04T22:57:17.586Z,10.00
2023-01-04T22:59:45.274Z,10.50
2023-01-04T23:02:12.917Z,10.20
2023-01-04T23:04:40.739Z,9.70
2023-01-04T23:07:08.358Z,9.30
2023-01-04T23:09:36.256Z,10.30
2023-01-04T23:12:04.095Z,10.00
2023-01-04T23:14:31.798Z,10.40
2023-01-04T23:16:59.482Z,9.40
2023-01-04T23:19:27.264Z,10.40
2023-01-04T23:21:54.906Z,11.00
2023-01-04T23:24:22.580Z,11.90
2023-01-04T23:26:50.236Z,11.60
2023-01-04T23:29:18.879Z,9.00
2023-01-04T23:31:46.601Z,9.90
2023-01-04T23:34:14.534Z,9.30
2023-01-04T23:36:42.571Z,9.10
2023-01-04T23:39:15.748Z,9.00
2023-01-04T23:41:44.052Z,9.20
2023-01-04T23:44:14.572Z,11.90
2023-01-04T23:46:43.081Z,11.50
2023-01-04T23:49:12.608Z,9.70
2023-01-04T23:51:40.237Z,9.40
2023-01-04T23:54:08.313Z,9.90
2023-01-04T23:56:36.744Z,9.00
2023-01-04T23:59:05.069Z,10.10
